sensor_id;sensor_type;location;lat;lon;timestamp;P1;durP1;ratioP1;P2;durP2;ratioP2
19095;SDS011;9680;52.520;13.332;2023-07-08T00:00:09;8.82;;;4.32;;
19095;SDS011;9680;52.520;13.332;2023-07-08T00:02:38;6.57;;;3.92;;
19095;SDS011;9680;52.520;13.332;2023-07-08T00:05:07;8.45;;;4.18;;
19095;SDS011;9680;52.520;13.332;2023-07-08T00:07:34;6.82;;;3.78;;
19095;SDS011;9680;52.520;13.332;2023-07-08T00:10:01;9.35;;;4.63;;
19095;SDS011;9680;52.520;13.332;2023-07-08T00:12:28;8.88;;;4.00;;
19095;SDS011;9680;52.520;13.332;2023-07-08T00:14:54;8.50;;;4.05;;
19095;SDS011;9680;52.520;13.332;2023-07-08T00:17:21;8.93;;;4.15;;
19095;SDS011;9680;52.520;13.332;2023-07-08T00:19:49;8.85;;;4.45;;
19095;SDS011;9680;52.520;13.332;2023-07-08T00:22:19;9.65;;;4.47;;
19095;SDS011;9680;52.520;13.332;2023-07-08T00:24:46;7.53;;;4.30;;
19095;SDS011;9680;52.520;13.332;2023-07-08T00:27:12;8.90;;;4.85;;
19095;SDS011;9680;52.520;13.332;2023-07-08T00:29:39;9.93;;;5.18;;
19095;SDS011;9680;52.520;13.332;2023-07-08T00:32:10;8.52;;;4.50;;
19095;SDS011;9680;52.520;13.332;2023-07-08T00:34:38;8.15;;;4.40;;
19095;SDS011;9680;52.520;13.332;2023-07-08T00:37:09;9.35;;;4.70;;
19095;SDS011;9680;52.520;13.332;2023-07-08T00:39:37;7.60;;;4.43;;
19095;SDS011;9680;52.520;13.332;2023-07-08T00:42:06;8.32;;;3.95;;
19095;SDS011;9680;52.520;13.332;2023-07-08T00:44:41;8.68;;;4.25;;
19095;SDS011;9680;52.520;13.332;2023-07-08T00:47:09;8.50;;;3.95;;
19095;SDS011;9680;52.520;13.332;2023-07-08T00:49:39;9.68;;;4.00;;
19095;SDS011;9680;52.520;13.332;2023-07-08T00:52:18;6.63;;;3.88;;
19095;SDS011;9680;52.520;13.332;2023-07-08T00:54:48;6.60;;;4.13;;
19095;SDS011;9680;52.520;13.332;2023-07-08T00:57:16;6.45;;;3.75;;
19095;SDS011;9680;52.520;13.332;2023-07-08T00:59:44;7.68;;;4.05;;
19095;SDS011;9680;52.520;13.332;2023-07-08T01:02:16;7.80;;;3.90;;
19095;SDS011;9680;52.520;13.332;2023-07-08T01:04:48;13.68;;;5.95;;
19095;SDS011;9680;52.520;13.332;2023-07-08T01:07:20;9.18;;;4.50;;
19095;SDS011;9680;52.520;13.332;2023-07-08T01:09:48;6.78;;;3.88;;
19095;SDS011;9680;52.520;13.332;2023-07-08T01:12:19;8.13;;;3.90;;
19095;SDS011;9680;52.520;13.332;2023-07-08T01:14:48;6.50;;;3.72;;
19095;SDS011;9680;52.520;13.332;2023-07-08T01:17:19;7.30;;;4.20;;
19095;SDS011;9680;52.520;13.332;2023-07-08T01:19:47;6.07;;;3.72;;
19095;SDS011;9680;52.520;13.332;2023-07-08T01:22:15;8.02;;;4.05;;
19095;SDS011;9680;52.520;13.332;2023-07-08T01:24:42;9.95;;;3.88;;
19095;SDS011;9680;52.520;13.332;2023-07-08T01:27:11;10.27;;;4.18;;
19095;SDS011;9680;52.520;13.332;2023-07-08T01:29:41;5.55;;;3.60;;
19095;SDS011;9680;52.520;13.332;2023-07-08T01:32:09;5.50;;;3.72;;
19095;SDS011;9680;52.520;13.332;2023-07-08T01:34:39;7.78;;;3.85;;
19095;SDS011;9680;52.520;13.332;2023-07-08T01:37:06;7.40;;;4.07;;
19095;SDS011;9680;52.520;13.332;2023-07-08T01:39:38;10.15;;;4.00;;
19095;SDS011;9680;52.520;13.332;2023-07-08T01:42:05;6.97;;;3.75;;
19095;SDS011;9680;52.520;13.332;2023-07-08T01:44:32;7.93;;;3.75;;
19095;SDS011;9680;52.520;13.332;2023-07-08T01:47:01;7.20;;;3.80;;
19095;SDS011;9680;52.520;13.332;2023-07-08T01:49:31;5.30;;;3.75;;
19095;SDS011;9680;52.520;13.332;2023-07-08T01:51:58;5.85;;;3.80;;
19095;SDS011;9680;52.520;13.332;2023-07-08T01:54:25;7.32;;;4.10;;
19095;SDS011;9680;52.520;13.332;2023-07-08T01:56:55;5.75;;;3.80;;
19095;SDS011;9680;52.520;13.332;2023-07-08T01:59:23;6.90;;;3.70;;
19095;SDS011;9680;52.520;13.332;2023-07-08T02:01:50;7.47;;;4.10;;
19095;SDS011;9680;52.520;13.332;2023-07-08T02:04:19;9.27;;;4.45;;
19095;SDS011;9680;52.520;13.332;2023-07-08T02:06:50;7.18;;;4.03;;
19095;SDS011;9680;52.520;13.332;2023-07-08T02:09:17;6.45;;;4.03;;
19095;SDS011;9680;52.520;13.332;2023-07-08T02:11:44;6.97;;;4.00;;
19095;SDS011;9680;52.520;13.332;2023-07-08T02:14:12;8.00;;;3.63;;
19095;SDS011;9680;52.520;13.332;2023-07-08T02:16:39;6.88;;;3.85;;
19095;SDS011;9680;52.520;13.332;2023-07-08T02:19:05;5.97;;;3.85;;
19095;SDS011;9680;52.520;13.332;2023-07-08T02:21:32;4.97;;;3.53;;
19095;SDS011;9680;52.520;13.332;2023-07-08T02:23:59;5.70;;;3.80;;
19095;SDS011;9680;52.520;13.332;2023-07-08T02:26:26;6.72;;;4.30;;
19095;SDS011;9680;52.520;13.332;2023-07-08T02:28:54;7.07;;;3.70;;
19095;SDS011;9680;52.520;13.332;2023-07-08T02:31:22;6.28;;;3.92;;
19095;SDS011;9680;52.520;13.332;2023-07-08T02:33:50;5.90;;;3.90;;
19095;SDS011;9680;52.520;13.332;2023-07-08T02:36:16;6.22;;;3.75;;
19095;SDS011;9680;52.520;13.332;2023-07-08T02:38:43;6.95;;;3.88;;
19095;SDS011;9680;52.520;13.332;2023-07-08T02:41:10;7.90;;;3.80;;
19095;SDS011;9680;52.520;13.332;2023-07-08T02:43:37;6.90;;;3.50;;
19095;SDS011;9680;52.520;13.332;2023-07-08T02:46:04;11.60;;;4.20;;
19095;SDS011;9680;52.520;13.332;2023-07-08T02:48:33;5.72;;;3.67;;
19095;SDS011;9680;52.520;13.332;2023-07-08T02:50:59;5.40;;;3.80;;
19095;SDS011;9680;52.520;13.332;2023-07-08T02:53:27;5.57;;;3.95;;
19095;SDS011;9680;52.520;13.332;2023-07-08T02:55:53;6.22;;;3.70;;
19095;SDS011;9680;52.520;13.332;2023-07-08T02:58:20;6.93;;;3.83;;
19095;SDS011;9680;52.520;13.332;2023-07-08T03:00:50;5.95;;;3.70;;
19095;SDS011;9680;52.520;13.332;2023-07-08T03:03:17;8.05;;;4.10;;
19095;SDS011;9680;52.520;13.332;2023-07-08T03:05:54;8.40;;;3.97;;
19095;SDS011;9680;52.520;13.332;2023-07-08T03:08:24;9.52;;;4.25;;
19095;SDS011;9680;52.520;13.332;2023-07-08T03:10:54;6.60;;;4.10;;
19095;SDS011;9680;52.520;13.332;2023-07-08T03:13:22;6.30;;;3.88;;
19095;SDS011;9680;52.520;13.332;2023-07-08T03:15:49;5.20;;;3.72;;
19095;SDS011;9680;52.520;13.332;2023-07-08T03:18:16;6.25;;;4.00;;
19095;SDS011;9680;52.520;13.332;2023-07-08T03:20:47;6.13;;;4.10;;
19095;SDS011;9680;52.520;13.332;2023-07-08T03:23:16;8.00;;;4.03;;
19095;SDS011;9680;52.520;13.332;2023-07-08T03:25:43;8.32;;;4.00;;
19095;SDS011;9680;52.520;13.332;2023-07-08T03:28:10;7.20;;;3.78;;
19095;SDS011;9680;52.520;13.332;2023-07-08T03:30:41;7.95;;;3.85;;
19095;SDS011;9680;52.520;13.332;2023-07-08T03:33:10;13.43;;;4.25;;
19095;SDS011;9680;52.520;13.332;2023-07-08T03:35:39;8.13;;;4.32;;
19095;SDS011;9680;52.520;13.332;2023-07-08T03:38:06;8.93;;;4.18;;
19095;SDS011;9680;52.520;13.332;2023-07-08T03:40:35;6.50;;;4.60;;
19095;SDS011;9680;52.520;13.332;2023-07-08T03:43:01;8.27;;;4.90;;
19095;SDS011;9680;52.520;13.332;2023-07-08T03:45:29;9.93;;;5.60;;
19095;SDS011;9680;52.520;13.332;2023-07-08T03:47:57;9.07;;;5.22;;
19095;SDS011;9680;52.520;13.332;2023-07-08T03:50:24;11.55;;;5.85;;
19095;SDS011;9680;52.520;13.332;2023-07-08T03:52:53;16.17;;;5.97;;
19095;SDS011;9680;52.520;13.332;2023-07-08T03:55:24;12.18;;;6.10;;
19095;SDS011;9680;52.520;13.332;2023-07-08T03:57:52;12.88;;;6.43;;
19095;SDS011;9680;52.520;13.332;2023-07-08T04:00:19;13.07;;;5.72;;
19095;SDS011;9680;52.520;13.332;2023-07-08T04:02:46;11.95;;;6.30;;
19095;SDS011;9680;52.520;13.332;2023-07-08T04:05:19;10.88;;;6.25;;
19095;SDS011;9680;52.520;13.332;2023-07-08T04:07:47;11.30;;;6.47;;
19095;SDS011;9680;52.520;13.332;2023-07-08T04:10:15;11.00;;;5.97;;
19095;SDS011;9680;52.520;13.332;2023-07-08T04:12:42;13.13;;;5.70;;
19095;SDS011;9680;52.520;13.332;2023-07-08T04:15:11;13.18;;;6.05;;
19095;SDS011;9680;52.520;13.332;2023-07-08T04:17:39;11.57;;;6.00;;
19095;SDS011;9680;52.520;13.332;2023-07-08T04:20:10;14.05;;;5.63;;
19095;SDS011;9680;52.520;13.332;2023-07-08T04:22:39;16.65;;;6.32;;
19095;SDS011;9680;52.520;13.332;2023-07-08T04:25:06;11.38;;;5.43;;
19095;SDS011;9680;52.520;13.332;2023-07-08T04:27:33;10.18;;;5.50;;
19095;SDS011;9680;52.520;13.332;2023-07-08T04:30:00;8.57;;;5.90;;
19095;SDS011;9680;52.520;13.332;2023-07-08T04:32:30;16.05;;;6.05;;
19095;SDS011;9680;52.520;13.332;2023-07-08T04:34:57;9.65;;;5.55;;
19095;SDS011;9680;52.520;13.332;2023-07-08T04:37:24;9.60;;;5.72;;
19095;SDS011;9680;52.520;13.332;2023-07-08T04:39:51;9.50;;;4.70;;
19095;SDS011;9680;52.520;13.332;2023-07-08T04:42:18;7.68;;;5.00;;
19095;SDS011;9680;52.520;13.332;2023-07-08T04:44:45;11.10;;;4.88;;
19095;SDS011;9680;52.520;13.332;2023-07-08T04:47:11;11.48;;;4.93;;
19095;SDS011;9680;52.520;13.332;2023-07-08T04:49:40;8.88;;;5.45;;
19095;SDS011;9680;52.520;13.332;2023-07-08T04:52:09;10.48;;;5.63;;
19095;SDS011;9680;52.520;13.332;2023-07-08T04:54:36;9.85;;;4.95;;
19095;SDS011;9680;52.520;13.332;2023-07-08T04:57:03;8.55;;;4.30;;
19095;SDS011;9680;52.520;13.332;2023-07-08T04:59:30;11.52;;;4.18;;
19095;SDS011;9680;52.520;13.332;2023-07-08T05:01:59;9.02;;;4.60;;
19095;SDS011;9680;52.520;13.332;2023-07-08T05:04:26;8.77;;;4.43;;
19095;SDS011;9680;52.520;13.332;2023-07-08T05:06:54;7.55;;;4.65;;
19095;SDS011;9680;52.520;13.332;2023-07-08T05:09:21;7.72;;;4.45;;
19095;SDS011;9680;52.520;13.332;2023-07-08T05:11:50;13.55;;;4.30;;
19095;SDS011;9680;52.520;13.332;2023-07-08T05:14:17;7.60;;;4.40;;
19095;SDS011;9680;52.520;13.332;2023-07-08T05:16:44;10.48;;;4.90;;
19095;SDS011;9680;52.520;13.332;2023-07-08T05:19:11;8.27;;;4.57;;
19095;SDS011;9680;52.520;13.332;2023-07-08T05:21:37;8.50;;;4.10;;
19095;SDS011;9680;52.520;13.332;2023-07-08T05:24:06;7.53;;;4.78;;
19095;SDS011;9680;52.520;13.332;2023-07-08T05:26:33;7.63;;;4.50;;
19095;SDS011;9680;52.520;13.332;2023-07-08T05:29:00;7.60;;;4.35;;
19095;SDS011;9680;52.520;13.332;2023-07-08T05:31:26;17.75;;;4.53;;
19095;SDS011;9680;52.520;13.332;2023-07-08T05:33:53;6.57;;;3.83;;
19095;SDS011;9680;52.520;13.332;2023-07-08T05:36:20;8.80;;;4.28;;
19095;SDS011;9680;52.520;13.332;2023-07-08T05:38:47;7.38;;;4.38;;
19095;SDS011;9680;52.520;13.332;2023-07-08T05:41:15;5.07;;;4.00;;
19095;SDS011;9680;52.520;13.332;2023-07-08T05:43:41;5.55;;;3.53;;
19095;SDS011;9680;52.520;13.332;2023-07-08T05:46:08;8.23;;;4.22;;
19095;SDS011;9680;52.520;13.332;2023-07-08T05:48:35;7.50;;;4.00;;
19095;SDS011;9680;52.520;13.332;2023-07-08T05:51:02;7.50;;;4.00;;
19095;SDS011;9680;52.520;13.332;2023-07-08T05:53:28;5.22;;;3.90;;
19095;SDS011;9680;52.520;13.332;2023-07-08T05:55:55;8.02;;;3.55;;
19095;SDS011;9680;52.520;13.332;2023-07-08T05:58:23;8.65;;;3.85;;
19095;SDS011;9680;52.520;13.332;2023-07-08T06:00:54;5.75;;;3.80;;
19095;SDS011;9680;52.520;13.332;2023-07-08T06:03:22;9.90;;;4.10;;
19095;SDS011;9680;52.520;13.332;2023-07-08T06:05:49;10.93;;;4.30;;
19095;SDS011;9680;52.520;13.332;2023-07-08T06:08:15;6.32;;;4.05;;
19095;SDS011;9680;52.520;13.332;2023-07-08T06:10:42;6.72;;;4.00;;
19095;SDS011;9680;52.520;13.332;2023-07-08T06:13:10;5.72;;;3.83;;
19095;SDS011;9680;52.520;13.332;2023-07-08T06:15:38;6.68;;;4.20;;
19095;SDS011;9680;52.520;13.332;2023-07-08T06:18:05;6.60;;;4.22;;
19095;SDS011;9680;52.520;13.332;2023-07-08T06:20:32;6.43;;;3.88;;
19095;SDS011;9680;52.520;13.332;2023-07-08T06:22:59;10.90;;;3.95;;
19095;SDS011;9680;52.520;13.332;2023-07-08T06:25:26;7.38;;;4.40;;
19095;SDS011;9680;52.520;13.332;2023-07-08T06:27:53;6.45;;;3.55;;
19095;SDS011;9680;52.520;13.332;2023-07-08T06:30:20;5.95;;;3.80;;
19095;SDS011;9680;52.520;13.332;2023-07-08T06:32:49;6.25;;;3.70;;
19095;SDS011;9680;52.520;13.332;2023-07-08T06:35:16;7.32;;;3.72;;
19095;SDS011;9680;52.520;13.332;2023-07-08T06:37:43;6.82;;;3.83;;
19095;SDS011;9680;52.520;13.332;2023-07-08T06:40:10;9.15;;;4.13;;
19095;SDS011;9680;52.520;13.332;2023-07-08T06:42:37;9.52;;;4.03;;
19095;SDS011;9680;52.520;13.332;2023-07-08T06:45:11;4.38;;;3.50;;
19095;SDS011;9680;52.520;13.332;2023-07-08T06:47:37;6.35;;;4.30;;
19095;SDS011;9680;52.520;13.332;2023-07-08T06:50:06;8.85;;;3.80;;
19095;SDS011;9680;52.520;13.332;2023-07-08T06:52:33;8.20;;;3.53;;
19095;SDS011;9680;52.520;13.332;2023-07-08T06:55:03;5.90;;;3.90;;
19095;SDS011;9680;52.520;13.332;2023-07-08T06:57:32;4.88;;;3.60;;
19095;SDS011;9680;52.520;13.332;2023-07-08T06:59:59;9.10;;;3.63;;
19095;SDS011;9680;52.520;13.332;2023-07-08T07:02:26;6.22;;;4.30;;
19095;SDS011;9680;52.520;13.332;2023-07-08T07:04:52;7.57;;;3.78;;
19095;SDS011;9680;52.520;13.332;2023-07-08T07:07:21;5.75;;;3.75;;
19095;SDS011;9680;52.520;13.332;2023-07-08T07:09:48;6.45;;;4.20;;
19095;SDS011;9680;52.520;13.332;2023-07-08T07:12:15;6.47;;;3.97;;
19095;SDS011;9680;52.520;13.332;2023-07-08T07:14:42;5.82;;;3.78;;
19095;SDS011;9680;52.520;13.332;2023-07-08T07:17:08;5.43;;;3.83;;
19095;SDS011;9680;52.520;13.332;2023-07-08T07:19:35;6.97;;;3.60;;
19095;SDS011;9680;52.520;13.332;2023-07-08T07:22:02;5.45;;;3.65;;
19095;SDS011;9680;52.520;13.332;2023-07-08T07:24:30;5.78;;;3.72;;
19095;SDS011;9680;52.520;13.332;2023-07-08T07:26:57;6.93;;;4.13;;
19095;SDS011;9680;52.520;13.332;2023-07-08T07:29:24;6.82;;;3.58;;
19095;SDS011;9680;52.520;13.332;2023-07-08T07:31:51;4.15;;;3.20;;
19095;SDS011;9680;52.520;13.332;2023-07-08T07:34:17;5.38;;;3.60;;
19095;SDS011;9680;52.520;13.332;2023-07-08T07:36:44;9.15;;;3.97;;
19095;SDS011;9680;52.520;13.332;2023-07-08T07:39:11;7.07;;;4.03;;
19095;SDS011;9680;52.520;13.332;2023-07-08T07:41:39;7.10;;;3.72;;
19095;SDS011;9680;52.520;13.332;2023-07-08T07:44:06;7.30;;;3.97;;
19095;SDS011;9680;52.520;13.332;2023-07-08T07:46:33;7.07;;;3.63;;
19095;SDS011;9680;52.520;13.332;2023-07-08T07:49:00;6.05;;;3.85;;
19095;SDS011;9680;52.520;13.332;2023-07-08T07:51:26;7.40;;;3.90;;
19095;SDS011;9680;52.520;13.332;2023-07-08T07:53:53;7.43;;;4.15;;
19095;SDS011;9680;52.520;13.332;2023-07-08T07:56:20;8.00;;;3.97;;
19095;SDS011;9680;52.520;13.332;2023-07-08T07:58:52;6.90;;;3.90;;
19095;SDS011;9680;52.520;13.332;2023-07-08T08:01:40;5.90;;;3.40;;
19095;SDS011;9680;52.520;13.332;2023-07-08T08:04:09;5.10;;;3.58;;
19095;SDS011;9680;52.520;13.332;2023-07-08T08:06:36;8.60;;;4.22;;
19095;SDS011;9680;52.520;13.332;2023-07-08T08:09:03;4.88;;;3.47;;
19095;SDS011;9680;52.520;13.332;2023-07-08T08:11:32;7.18;;;4.32;;
19095;SDS011;9680;52.520;13.332;2023-07-08T08:14:01;7.63;;;3.90;;
19095;SDS011;9680;52.520;13.332;2023-07-08T08:16:29;8.30;;;4.82;;
19095;SDS011;9680;52.520;13.332;2023-07-08T08:18:56;5.20;;;4.00;;
19095;SDS011;9680;52.520;13.332;2023-07-08T08:21:23;7.63;;;4.10;;
19095;SDS011;9680;52.520;13.332;2023-07-08T08:23:50;5.70;;;4.28;;
19095;SDS011;9680;52.520;13.332;2023-07-08T08:26:16;9.95;;;4.13;;
19095;SDS011;9680;52.520;13.332;2023-07-08T08:28:43;5.43;;;3.70;;
19095;SDS011;9680;52.520;13.332;2023-07-08T08:31:14;5.63;;;3.90;;
19095;SDS011;9680;52.520;13.332;2023-07-08T08:33:41;6.90;;;4.20;;
19095;SDS011;9680;52.520;13.332;2023-07-08T08:36:07;5.22;;;4.03;;
19095;SDS011;9680;52.520;13.332;2023-07-08T08:38:34;6.85;;;4.00;;
19095;SDS011;9680;52.520;13.332;2023-07-08T08:41:03;6.10;;;3.80;;
19095;SDS011;9680;52.520;13.332;2023-07-08T08:43:31;4.63;;;3.65;;
19095;SDS011;9680;52.520;13.332;2023-07-08T08:46:04;6.40;;;4.20;;
19095;SDS011;9680;52.520;13.332;2023-07-08T08:48:35;6.63;;;4.25;;
19095;SDS011;9680;52.520;13.332;2023-07-08T08:51:22;5.57;;;3.80;;
19095;SDS011;9680;52.520;13.332;2023-07-08T08:53:51;5.13;;;3.50;;
19095;SDS011;9680;52.520;13.332;2023-07-08T08:56:22;6.72;;;3.42;;
19095;SDS011;9680;52.520;13.332;2023-07-08T08:58:58;16.95;;;3.30;;
19095;SDS011;9680;52.520;13.332;2023-07-08T09:01:33;5.10;;;3.22;;
19095;SDS011;9680;52.520;13.332;2023-07-08T09:04:02;5.65;;;3.28;;
19095;SDS011;9680;52.520;13.332;2023-07-08T09:06:32;5.05;;;3.10;;
19095;SDS011;9680;52.520;13.332;2023-07-08T09:09:02;7.13;;;3.20;;
19095;SDS011;9680;52.520;13.332;2023-07-08T09:11:37;4.40;;;2.90;;
19095;SDS011;9680;52.520;13.332;2023-07-08T09:14:12;3.83;;;2.45;;
19095;SDS011;9680;52.520;13.332;2023-07-08T09:16:43;5.22;;;2.83;;
19095;SDS011;9680;52.520;13.332;2023-07-08T09:19:18;4.93;;;3.65;;
19095;SDS011;9680;52.520;13.332;2023-07-08T09:21:51;5.20;;;2.70;;
19095;SDS011;9680;52.520;13.332;2023-07-08T09:24:24;4.40;;;2.40;;
19095;SDS011;9680;52.520;13.332;2023-07-08T09:27:03;4.63;;;2.38;;
19095;SDS011;9680;52.520;13.332;2023-07-08T09:29:30;5.68;;;3.05;;
19095;SDS011;9680;52.520;13.332;2023-07-08T09:31:59;3.95;;;2.60;;
19095;SDS011;9680;52.520;13.332;2023-07-08T09:34:40;3.85;;;2.80;;
19095;SDS011;9680;52.520;13.332;2023-07-08T09:39:57;4.68;;;2.67;;
19095;SDS011;9680;52.520;13.332;2023-07-08T09:42:27;5.50;;;2.75;;
19095;SDS011;9680;52.520;13.332;2023-07-08T09:44:56;3.45;;;2.80;;
19095;SDS011;9680;52.520;13.332;2023-07-08T09:47:25;3.35;;;2.60;;
19095;SDS011;9680;52.520;13.332;2023-07-08T09:49:58;6.55;;;2.60;;
19095;SDS011;9680;52.520;13.332;2023-07-08T09:52:25;6.70;;;2.65;;
19095;SDS011;9680;52.520;13.332;2023-07-08T09:54:52;5.55;;;3.10;;
19095;SDS011;9680;52.520;13.332;2023-07-08T09:57:25;5.40;;;2.60;;
19095;SDS011;9680;52.520;13.332;2023-07-08T09:59:56;6.85;;;2.45;;
19095;SDS011;9680;52.520;13.332;2023-07-08T10:02:30;3.70;;;2.70;;
19095;SDS011;9680;52.520;13.332;2023-07-08T10:05:03;4.18;;;3.05;;
19095;SDS011;9680;52.520;13.332;2023-07-08T10:07:38;3.50;;;2.70;;
19095;SDS011;9680;52.520;13.332;2023-07-08T10:10:06;7.60;;;2.95;;
19095;SDS011;9680;52.520;13.332;2023-07-08T10:12:37;6.53;;;2.92;;
19095;SDS011;9680;52.520;13.332;2023-07-08T10:15:11;4.53;;;2.72;;
19095;SDS011;9680;52.520;13.332;2023-07-08T10:17:43;4.65;;;2.70;;
19095;SDS011;9680;52.520;13.332;2023-07-08T10:20:12;5.47;;;2.90;;
19095;SDS011;9680;52.520;13.332;2023-07-08T10:22:41;4.82;;;2.83;;
19095;SDS011;9680;52.520;13.332;2023-07-08T10:25:15;3.97;;;2.60;;
19095;SDS011;9680;52.520;13.332;2023-07-08T10:27:53;4.78;;;2.90;;
19095;SDS011;9680;52.520;13.332;2023-07-08T10:30:30;4.65;;;2.85;;
19095;SDS011;9680;52.520;13.332;2023-07-08T10:33:11;5.78;;;2.50;;
19095;SDS011;9680;52.520;13.332;2023-07-08T10:36:02;5.53;;;2.70;;
19095;SDS011;9680;52.520;13.332;2023-07-08T10:38:50;5.35;;;2.78;;
19095;SDS011;9680;52.520;13.332;2023-07-08T10:41:26;4.72;;;2.80;;
19095;SDS011;9680;52.520;13.332;2023-07-08T10:44:04;8.25;;;2.70;;
19095;SDS011;9680;52.520;13.332;2023-07-08T10:46:37;3.67;;;2.58;;
19095;SDS011;9680;52.520;13.332;2023-07-08T10:52:11;5.05;;;3.08;;
19095;SDS011;9680;52.520;13.332;2023-07-08T10:54:56;7.40;;;3.00;;
19095;SDS011;9680;52.520;13.332;2023-07-08T10:57:42;3.28;;;2.70;;
19095;SDS011;9680;52.520;13.332;2023-07-08T11:00:24;6.40;;;3.03;;
19095;SDS011;9680;52.520;13.332;2023-07-08T11:03:18;4.38;;;2.72;;
19095;SDS011;9680;52.520;13.332;2023-07-08T11:06:02;4.00;;;2.83;;
19095;SDS011;9680;52.520;13.332;2023-07-08T11:08:35;5.35;;;2.80;;
19095;SDS011;9680;52.520;13.332;2023-07-08T11:11:08;3.72;;;2.65;;
19095;SDS011;9680;52.520;13.332;2023-07-08T11:13:44;3.92;;;2.80;;
19095;SDS011;9680;52.520;13.332;2023-07-08T11:16:15;7.13;;;3.03;;
19095;SDS011;9680;52.520;13.332;2023-07-08T11:18:49;5.32;;;3.58;;
19095;SDS011;9680;52.520;13.332;2023-07-08T11:21:20;12.98;;;3.22;;
19095;SDS011;9680;52.520;13.332;2023-07-08T11:23:54;5.00;;;3.60;;
19095;SDS011;9680;52.520;13.332;2023-07-08T11:26:27;4.00;;;2.63;;
19095;SDS011;9680;52.520;13.332;2023-07-08T11:28:59;3.90;;;2.53;;
19095;SDS011;9680;52.520;13.332;2023-07-08T11:31:30;4.85;;;2.90;;
19095;SDS011;9680;52.520;13.332;2023-07-08T11:33:59;5.13;;;2.90;;
19095;SDS011;9680;52.520;13.332;2023-07-08T11:36:28;3.75;;;2.67;;
19095;SDS011;9680;52.520;13.332;2023-07-08T11:38:59;5.25;;;3.17;;
19095;SDS011;9680;52.520;13.332;2023-07-08T11:41:26;3.47;;;2.95;;
19095;SDS011;9680;52.520;13.332;2023-07-08T11:43:57;3.80;;;2.88;;
19095;SDS011;9680;52.520;13.332;2023-07-08T11:46:26;4.88;;;2.80;;
19095;SDS011;9680;52.520;13.332;2023-07-08T11:48:56;7.60;;;3.15;;
19095;SDS011;9680;52.520;13.332;2023-07-08T11:51:27;4.32;;;2.90;;
19095;SDS011;9680;52.520;13.332;2023-07-08T11:54:02;4.60;;;2.80;;
19095;SDS011;9680;52.520;13.332;2023-07-08T11:56:46;4.30;;;2.78;;
19095;SDS011;9680;52.520;13.332;2023-07-08T11:59:16;7.55;;;2.92;;
19095;SDS011;9680;52.520;13.332;2023-07-08T12:01:51;5.10;;;2.70;;
19095;SDS011;9680;52.520;13.332;2023-07-08T12:04:26;3.63;;;2.80;;
19095;SDS011;9680;52.520;13.332;2023-07-08T12:07:06;5.40;;;3.00;;
19095;SDS011;9680;52.520;13.332;2023-07-08T12:09:39;4.50;;;2.40;;
19095;SDS011;9680;52.520;13.332;2023-07-08T12:12:14;3.88;;;2.60;;
19095;SDS011;9680;52.520;13.332;2023-07-08T12:14:46;4.97;;;3.10;;
19095;SDS011;9680;52.520;13.332;2023-07-08T12:17:12;5.00;;;2.97;;
19095;SDS011;9680;52.520;13.332;2023-07-08T12:19:41;3.65;;;2.97;;
19095;SDS011;9680;52.520;13.332;2023-07-08T12:22:10;3.97;;;2.80;;
19095;SDS011;9680;52.520;13.332;2023-07-08T12:24:39;6.47;;;3.05;;
19095;SDS011;9680;52.520;13.332;2023-07-08T12:27:08;4.88;;;3.00;;
19095;SDS011;9680;52.520;13.332;2023-07-08T12:29:36;5.45;;;2.83;;
19095;SDS011;9680;52.520;13.332;2023-07-08T12:32:03;7.05;;;2.90;;
19095;SDS011;9680;52.520;13.332;2023-07-08T12:34:31;13.65;;;2.70;;
19095;SDS011;9680;52.520;13.332;2023-07-08T12:36:58;5.50;;;3.17;;
19095;SDS011;9680;52.520;13.332;2023-07-08T12:39:25;5.32;;;2.80;;
19095;SDS011;9680;52.520;13.332;2023-07-08T12:41:53;5.00;;;2.78;;
19095;SDS011;9680;52.520;13.332;2023-07-08T12:44:23;5.70;;;3.05;;
19095;SDS011;9680;52.520;13.332;2023-07-08T12:46:52;5.88;;;3.05;;
19095;SDS011;9680;52.520;13.332;2023-07-08T12:49:21;4.43;;;3.00;;
19095;SDS011;9680;52.520;13.332;2023-07-08T12:51:52;3.65;;;2.90;;
19095;SDS011;9680;52.520;13.332;2023-07-08T12:54:19;5.13;;;2.95;;
19095;SDS011;9680;52.520;13.332;2023-07-08T12:56:47;5.05;;;3.03;;
19095;SDS011;9680;52.520;13.332;2023-07-08T12:59:17;4.65;;;2.53;;
19095;SDS011;9680;52.520;13.332;2023-07-08T13:01:46;4.35;;;2.90;;
19095;SDS011;9680;52.520;13.332;2023-07-08T13:04:14;6.75;;;3.28;;
19095;SDS011;9680;52.520;13.332;2023-07-08T13:06:42;3.90;;;2.90;;
19095;SDS011;9680;52.520;13.332;2023-07-08T13:09:17;8.02;;;3.20;;
19095;SDS011;9680;52.520;13.332;2023-07-08T13:11:55;5.07;;;3.15;;
19095;SDS011;9680;52.520;13.332;2023-07-08T13:14:25;4.82;;;2.80;;
19095;SDS011;9680;52.520;13.332;2023-07-08T13:16:52;3.67;;;2.67;;
19095;SDS011;9680;52.520;13.332;2023-07-08T13:19:20;5.07;;;3.10;;
19095;SDS011;9680;52.520;13.332;2023-07-08T13:21:47;4.72;;;3.05;;
19095;SDS011;9680;52.520;13.332;2023-07-08T13:24:15;5.50;;;3.08;;
19095;SDS011;9680;52.520;13.332;2023-07-08T13:26:44;5.32;;;3.03;;
19095;SDS011;9680;52.520;13.332;2023-07-08T13:29:13;4.93;;;3.00;;
19095;SDS011;9680;52.520;13.332;2023-07-08T13:31:46;4.43;;;2.70;;
19095;SDS011;9680;52.520;13.332;2023-07-08T13:34:15;4.80;;;2.97;;
19095;SDS011;9680;52.520;13.332;2023-07-08T13:36:44;4.10;;;3.00;;
19095;SDS011;9680;52.520;13.332;2023-07-08T13:39:15;3.88;;;3.10;;
19095;SDS011;9680;52.520;13.332;2023-07-08T13:41:47;4.78;;;3.00;;
19095;SDS011;9680;52.520;13.332;2023-07-08T13:44:14;4.57;;;3.03;;
19095;SDS011;9680;52.520;13.332;2023-07-08T13:46:45;4.20;;;2.67;;
19095;SDS011;9680;52.520;13.332;2023-07-08T13:49:22;5.07;;;3.10;;
19095;SDS011;9680;52.520;13.332;2023-07-08T13:51:50;4.45;;;3.08;;
19095;SDS011;9680;52.520;13.332;2023-07-08T13:54:19;6.53;;;3.00;;
19095;SDS011;9680;52.520;13.332;2023-07-08T13:56:48;6.68;;;2.50;;
19095;SDS011;9680;52.520;13.332;2023-07-08T13:59:17;4.00;;;2.90;;
19095;SDS011;9680;52.520;13.332;2023-07-08T14:01:50;6.85;;;3.15;;
19095;SDS011;9680;52.520;13.332;2023-07-08T14:04:19;6.22;;;2.95;;
19095;SDS011;9680;52.520;13.332;2023-07-08T14:06:51;4.28;;;3.03;;
19095;SDS011;9680;52.520;13.332;2023-07-08T14:09:18;4.53;;;3.05;;
19095;SDS011;9680;52.520;13.332;2023-07-08T14:11:47;4.20;;;2.95;;
19095;SDS011;9680;52.520;13.332;2023-07-08T14:14:15;7.70;;;3.55;;
19095;SDS011;9680;52.520;13.332;2023-07-08T14:16:43;4.68;;;3.05;;
19095;SDS011;9680;52.520;13.332;2023-07-08T14:19:13;4.82;;;2.95;;
19095;SDS011;9680;52.520;13.332;2023-07-08T14:21:43;6.38;;;3.20;;
19095;SDS011;9680;52.520;13.332;2023-07-08T14:24:11;4.97;;;3.28;;
19095;SDS011;9680;52.520;13.332;2023-07-08T14:26:41;4.53;;;2.83;;
19095;SDS011;9680;52.520;13.332;2023-07-08T14:29:09;5.03;;;2.97;;
19095;SDS011;9680;52.520;13.332;2023-07-08T14:31:36;5.03;;;3.42;;
19095;SDS011;9680;52.520;13.332;2023-07-08T14:34:04;7.03;;;2.92;;
19095;SDS011;9680;52.520;13.332;2023-07-08T14:36:34;6.72;;;3.17;;
19095;SDS011;9680;52.520;13.332;2023-07-08T14:39:07;5.38;;;3.15;;
19095;SDS011;9680;52.520;13.332;2023-07-08T14:41:37;5.47;;;3.40;;
19095;SDS011;9680;52.520;13.332;2023-07-08T14:44:08;4.20;;;2.95;;
19095;SDS011;9680;52.520;13.332;2023-07-08T14:46:44;5.47;;;3.35;;
19095;SDS011;9680;52.520;13.332;2023-07-08T14:49:11;4.32;;;2.80;;
19095;SDS011;9680;52.520;13.332;2023-07-08T14:51:43;7.65;;;3.35;;
19095;SDS011;9680;52.520;13.332;2023-07-08T14:54:10;4.68;;;3.00;;
19095;SDS011;9680;52.520;13.332;2023-07-08T14:56:37;5.93;;;2.95;;
19095;SDS011;9680;52.520;13.332;2023-07-08T14:59:04;7.45;;;3.03;;
19095;SDS011;9680;52.520;13.332;2023-07-08T15:01:31;4.60;;;2.80;;
19095;SDS011;9680;52.520;13.332;2023-07-08T15:03:58;4.43;;;3.00;;